createdAt,value
2018-06-05T00:00:31.844Z,16.50
2018-06-05T00:03:00.256Z,16.40
2018-06-05T00:05:28.808Z,16.40
2018-06-05T00:07:57.260Z,16.40
2018-06-05T00:10:25.657Z,16.40
2018-06-05T00:12:54.140Z,16.40
2018-06-05T00:15:22.580Z,16.30
2018-06-05T00:17:51.127Z,16.30
2018-06-05T00:20:19.588Z,16.30
2018-06-05T00:22:48.018Z,16.30
2018-06-05T00:25:16.426Z,16.30
2018-06-05T00:27:44.868Z,16.20
2018-06-05T00:30:13.429Z,16.20
2018-06-05T00:32:41.835Z,16.20
2018-06-05T00:35:10.359Z,16.20
2018-06-05T00:37:38.834Z,16.30
2018-06-05T00:40:07.237Z,16.30
2018-06-05T00:42:35.662Z,16.40
2018-06-05T00:45:04.117Z,16.50
2018-06-05T00:47:32.590Z,16.50
2018-06-05T00:50:01.051Z,16.60
2018-06-05T00:52:29.517Z,16.60
2018-06-05T00:54:57.908Z,16.60
2018-06-05T00:57:26.607Z,16.60
2018-06-05T00:59:55.019Z,16.60
2018-06-05T01:02:23.429Z,16.70
2018-06-05T01:04:51.859Z,16.80
2018-06-05T01:07:20.300Z,16.70
2018-06-05T01:09:48.720Z,16.70
2018-06-05T01:12:17.127Z,16.70
2018-06-05T01:14:45.586Z,16.80
2018-06-05T01:17:14.072Z,16.90
2018-06-05T01:19:42.499Z,16.90
2018-06-05T01:22:10.899Z,17.00
2018-06-05T01:24:39.352Z,16.90
2018-06-05T01:27:12.264Z,16.90
2018-06-05T01:29:40.704Z,16.90
2018-06-05T01:32:09.113Z,17.00
2018-06-05T01:34:37.532Z,16.90
2018-06-05T01:37:06.133Z,17.00
2018-06-05T01:39:34.585Z,17.00
2018-06-05T01:42:02.983Z,17.00
2018-06-05T01:44:31.445Z,17.00
2018-06-05T01:47:00.161Z,17.00
2018-06-05T01:49:34.099Z,17.00
2018-06-05T01:52:02.499Z,17.00
2018-06-05T01:54:31.230Z,17.00
2018-06-05T01:56:59.651Z,17.10
2018-06-05T01:59:28.063Z,17.00
2018-06-05T02:01:56.640Z,17.00
2018-06-05T02:04:25.074Z,17.10
2018-06-05T02:06:53.484Z,17.10
2018-06-05T02:09:21.920Z,17.00
2018-06-05T02:11:50.370Z,17.00
2018-06-05T02:14:18.839Z,17.00
2018-06-05T02:16:47.302Z,16.90
2018-06-05T02:19:15.743Z,17.00
2018-06-05T02:21:44.280Z,17.00
2018-06-05T02:24:12.768Z,17.00
2018-06-05T02:26:41.203Z,17.00
2018-06-05T02:29:09.596Z,17.00
2018-06-05T02:31:38.023Z,17.00
2018-06-05T02:34:06.503Z,17.00
2018-06-05T02:36:35.007Z,16.90
2018-06-05T02:39:05.224Z,17.00
2018-06-05T02:41:33.676Z,16.90
2018-06-05T02:44:02.100Z,17.00
2018-06-05T02:46:30.669Z,17.10
2018-06-05T02:48:59.093Z,17.10
2018-06-05T02:51:27.525Z,17.10
2018-06-05T02:53:55.952Z,17.10
2018-06-05T02:56:24.389Z,17.00
2018-06-05T02:58:52.874Z,17.00
2018-06-05T03:01:21.426Z,17.00
2018-06-05T03:03:49.815Z,16.80
2018-06-05T03:06:18.227Z,16.80
2018-06-05T03:08:46.615Z,16.80
2018-06-05T03:11:16.172Z,16.90
2018-06-05T03:13:44.800Z,16.90
2018-06-05T03:16:13.647Z,17.00
2018-06-05T03:18:42.013Z,17.00
2018-06-05T03:21:10.516Z,17.00
2018-06-05T03:23:39.031Z,16.90
2018-06-05T03:26:07.447Z,16.90
2018-06-05T03:28:35.952Z,17.00
2018-06-05T03:31:04.331Z,17.00
2018-06-05T03:36:01.046Z,16.90
2018-06-05T03:38:29.424Z,16.90
2018-06-05T03:40:57.845Z,17.00
2018-06-05T03:43:26.356Z,17.00
2018-06-05T03:45:54.733Z,17.10
2018-06-05T03:48:23.154Z,17.10
2018-06-05T03:50:51.639Z,17.10
2018-06-05T03:53:20.025Z,17.20
2018-06-05T03:55:48.407Z,17.10
2018-06-05T03:58:16.895Z,17.20
2018-06-05T04:00:45.291Z,17.10
2018-06-05T04:03:13.757Z,17.20
2018-06-05T04:05:42.213Z,17.30
2018-06-05T04:08:10.736Z,17.30
2018-06-05T04:10:39.115Z,17.30
2018-06-05T04:13:07.493Z,17.40
2018-06-05T04:15:35.860Z,17.30
2018-06-05T04:18:04.259Z,17.30
2018-06-05T04:20:32.664Z,17.40
2018-06-05T04:23:01.063Z,17.40
2018-06-05T04:25:29.419Z,17.30
2018-06-05T04:27:57.935Z,17.40
2018-06-05T04:30:26.347Z,17.50
2018-06-05T04:32:54.795Z,17.40
2018-06-05T04:35:23.161Z,17.50
2018-06-05T04:37:51.540Z,17.50
2018-06-05T04:40:20.011Z,17.40
2018-06-05T04:42:48.498Z,17.50
2018-06-05T04:45:16.876Z,17.60
2018-06-05T04:47:45.447Z,17.80
2018-06-05T04:50:13.881Z,17.70
2018-06-05T04:52:42.260Z,17.70
2018-06-05T04:55:10.636Z,17.80
2018-06-05T04:57:39.118Z,17.90
2018-06-05T05:00:07.503Z,18.10
2018-06-05T05:02:35.887Z,17.90
2018-06-05T05:05:04.372Z,17.90
2018-06-05T05:07:32.881Z,17.80
2018-06-05T05:10:01.260Z,17.80
2018-06-05T05:12:29.709Z,18.00
2018-06-05T05:14:58.069Z,18.00
2018-06-05T05:17:26.448Z,18.00
2018-06-05T05:19:54.822Z,18.00
2018-06-05T05:22:23.192Z,18.00
2018-06-05T05:24:51.643Z,18.00
2018-06-05T05:27:20.036Z,18.00
2018-06-05T05:29:48.456Z,18.10
2018-06-05T05:32:16.898Z,18.00
2018-06-05T05:34:45.328Z,18.10
2018-06-05T05:37:13.691Z,18.20
2018-06-05T05:39:42.068Z,18.40
2018-06-05T05:42:10.424Z,18.40
2018-06-05T05:44:38.791Z,18.40
2018-06-05T05:47:07.467Z,18.50
2018-06-05T05:49:35.917Z,18.50
2018-06-05T05:52:04.492Z,18.60
2018-06-05T05:54:32.959Z,18.60
2018-06-05T05:57:01.357Z,18.60
2018-06-05T05:59:29.753Z,18.50
2018-06-05T06:01:58.171Z,18.70
2018-06-05T06:04:26.594Z,18.80
2018-06-05T06:06:55.009Z,19.00
2018-06-05T06:09:23.526Z,19.00
2018-06-05T06:11:51.900Z,18.80
2018-06-05T06:14:20.359Z,18.90
2018-06-05T06:16:48.741Z,19.10
2018-06-05T06:19:17.253Z,18.90
2018-06-05T06:21:45.612Z,18.90
2018-06-05T06:24:14.010Z,18.90
2018-06-05T06:26:42.364Z,19.00
2018-06-05T06:29:10.754Z,18.80
2018-06-05T06:31:39.128Z,19.00
2018-06-05T06:34:07.505Z,18.90
2018-06-05T06:36:35.861Z,18.80
2018-06-05T06:39:06.533Z,18.90
2018-06-05T06:41:34.899Z,18.90
2018-06-05T06:44:03.553Z,18.80
2018-06-05T06:46:31.936Z,18.80
2018-06-05T06:49:00.393Z,18.80
2018-06-05T06:51:28.775Z,18.90
2018-06-05T06:53:57.200Z,19.00
2018-06-05T06:56:25.568Z,18.80
2018-06-05T06:58:54.009Z,19.10
2018-06-05T07:01:22.419Z,19.20
2018-06-05T07:03:50.840Z,18.90
2018-06-05T07:06:19.367Z,18.90
2018-06-05T07:08:47.757Z,19.20
2018-06-05T07:11:16.668Z,19.20
2018-06-05T07:13:45.145Z,19.20
2018-06-05T07:16:13.517Z,19.30
2018-06-05T07:18:41.872Z,19.40
2018-06-05T07:21:10.255Z,19.30
2018-06-05T07:23:38.715Z,19.20
2018-06-05T07:26:07.111Z,19.00
2018-06-05T07:28:35.491Z,18.70
2018-06-05T07:31:03.875Z,18.80
2018-06-05T07:33:32.248Z,18.70
2018-06-05T07:36:00.624Z,18.60
2018-06-05T07:38:28.979Z,18.60
2018-06-05T07:40:57.348Z,18.80
2018-06-05T07:43:25.723Z,18.80
2018-06-05T07:45:54.096Z,19.00
2018-06-05T07:48:22.455Z,19.20
2018-06-05T07:50:50.828Z,19.20
2018-06-05T07:53:19.181Z,19.20
2018-06-05T07:55:47.584Z,18.90
2018-06-05T07:58:16.014Z,19.00
2018-06-05T08:00:44.469Z,19.00
2018-06-05T08:03:13.064Z,18.90
2018-06-05T08:05:41.459Z,19.20
2018-06-05T08:08:09.871Z,18.90
2018-06-05T08:10:38.267Z,18.80
2018-06-05T08:13:06.640Z,18.80
2018-06-05T08:15:35.016Z,18.80
2018-06-05T08:18:03.421Z,18.90
2018-06-05T08:20:31.820Z,19.10
2018-06-05T08:23:00.269Z,19.30
2018-06-05T08:25:28.676Z,19.30
2018-06-05T08:27:57.040Z,19.40
2018-06-05T08:30:25.448Z,19.40
2018-06-05T08:32:53.839Z,19.30
2018-06-05T08:35:22.211Z,19.30
2018-06-05T08:37:50.590Z,19.10
2018-06-05T08:40:19.254Z,19.20
2018-06-05T08:42:47.628Z,19.30
2018-06-05T08:45:16.042Z,19.10
2018-06-05T08:47:44.414Z,19.20
2018-06-05T08:50:12.807Z,19.10
2018-06-05T08:52:41.208Z,19.10
2018-06-05T08:55:09.605Z,19.30
2018-06-05T08:57:38.010Z,19.40
2018-06-05T09:00:06.456Z,19.20
2018-06-05T09:02:34.824Z,19.20
2018-06-05T09:05:03.350Z,19.50
2018-06-05T09:07:31.736Z,19.70
2018-06-05T09:10:00.090Z,19.90
2018-06-05T09:12:28.625Z,19.70
2018-06-05T09:14:56.976Z,20.00
2018-06-05T09:17:25.363Z,20.00
2018-06-05T09:19:53.752Z,20.40
2018-06-05T09:22:22.131Z,20.30
2018-06-05T09:24:50.487Z,20.20
2018-06-05T09:27:18.859Z,20.10
2018-06-05T09:29:47.241Z,20.30
2018-06-05T09:32:15.613Z,20.20
2018-06-05T09:34:44.080Z,20.10
2018-06-05T09:37:12.467Z,20.20
2018-06-05T09:39:40.929Z,20.30
2018-06-05T09:42:09.380Z,20.40
2018-06-05T09:44:37.841Z,20.60
2018-06-05T09:47:06.221Z,20.60
2018-06-05T09:49:34.632Z,20.40
2018-06-05T09:52:03.068Z,20.80
2018-06-05T09:54:31.438Z,20.90
2018-06-05T09:56:59.925Z,20.90
2018-06-05T09:59:28.300Z,20.30
2018-06-05T10:01:56.695Z,20.50
2018-06-05T10:04:25.099Z,21.00
2018-06-05T10:06:53.582Z,20.60
2018-06-05T10:09:22.043Z,20.60
2018-06-05T10:11:50.430Z,20.40
2018-06-05T10:14:19.646Z,20.60
2018-06-05T10:19:16.159Z,20.70
2018-06-05T10:21:44.547Z,21.00
2018-06-05T10:24:12.908Z,21.00
2018-06-05T10:29:09.391Z,20.30
2018-06-05T10:31:37.772Z,20.80
2018-06-05T10:34:06.180Z,20.70
2018-06-05T10:36:34.544Z,20.70
2018-06-05T10:39:03.015Z,20.60
2018-06-05T10:41:31.376Z,20.70
2018-06-05T10:43:59.783Z,20.90
2018-06-05T10:46:28.148Z,21.00
2018-06-05T10:51:24.598Z,20.00
2018-06-05T10:53:52.967Z,20.50
2018-06-05T10:56:21.337Z,20.60
2018-06-05T10:58:49.875Z,20.80
2018-06-05T11:01:18.219Z,20.90
2018-06-05T11:03:46.695Z,20.60
2018-06-05T11:06:15.092Z,21.10
2018-06-05T11:08:43.481Z,21.90
2018-06-05T11:11:11.847Z,21.90
2018-06-05T11:13:40.255Z,22.00
2018-06-05T11:16:08.629Z,21.70
2018-06-05T11:18:37.019Z,21.50
2018-06-05T11:23:33.487Z,21.60
2018-06-05T11:26:01.857Z,22.30
2018-06-05T11:28:30.241Z,21.80
2018-06-05T11:30:58.605Z,21.30
2018-06-05T11:33:26.983Z,21.90
2018-06-05T11:35:55.367Z,21.20
2018-06-05T11:38:23.744Z,21.70
2018-06-05T11:40:52.247Z,21.90
2018-06-05T11:43:20.611Z,21.80
2018-06-05T11:45:49.214Z,21.70
2018-06-05T11:48:17.620Z,22.20
2018-06-05T11:50:45.988Z,22.30
2018-06-05T11:53:14.368Z,22.40
2018-06-05T11:55:42.800Z,22.70
2018-06-05T11:58:11.245Z,22.40
2018-06-05T12:00:39.610Z,22.30
2018-06-05T12:03:07.988Z,23.20
2018-06-05T12:05:36.382Z,22.90
2018-06-05T12:08:04.787Z,22.40
2018-06-05T12:10:33.179Z,22.30
2018-06-05T12:13:01.607Z,22.20
2018-06-05T12:15:29.966Z,21.90
2018-06-05T12:17:58.384Z,22.50
2018-06-05T12:20:27.128Z,23.00
2018-06-05T12:22:55.508Z,22.30
2018-06-05T12:25:23.940Z,22.90
2018-06-05T12:27:52.327Z,23.10
2018-06-05T12:30:20.720Z,23.40
2018-06-05T12:32:49.120Z,23.20
2018-06-05T12:35:17.647Z,23.80
2018-06-05T12:37:46.034Z,23.00
2018-06-05T12:40:14.439Z,23.20
2018-06-05T12:42:42.831Z,23.30
2018-06-05T12:45:11.324Z,23.40
2018-06-05T12:47:39.679Z,24.10
2018-06-05T12:50:08.083Z,23.30
2018-06-05T12:52:36.457Z,23.40
2018-06-05T12:55:04.935Z,23.90
2018-06-05T13:00:01.456Z,23.80
2018-06-05T13:02:29.935Z,24.20
2018-06-05T13:04:58.392Z,25.10
2018-06-05T13:07:26.773Z,24.80
2018-06-05T13:09:55.149Z,23.60
2018-06-05T13:12:23.516Z,23.60
2018-06-05T13:14:51.943Z,24.40
2018-06-05T13:17:20.425Z,24.20
2018-06-05T13:19:48.791Z,23.60
2018-06-05T13:22:17.305Z,24.00
2018-06-05T13:24:45.677Z,23.70
2018-06-05T13:27:14.031Z,24.20
2018-06-05T13:29:42.405Z,24.30
2018-06-05T13:34:39.001Z,23.30
2018-06-05T13:37:07.176Z,23.30
2018-06-05T13:39:35.551Z,23.30
2018-06-05T13:42:03.914Z,23.40
2018-06-05T13:44:32.315Z,23.20
2018-06-05T13:47:00.712Z,23.30
2018-06-05T13:49:29.091Z,23.40
2018-06-05T13:51:57.451Z,22.80
2018-06-05T13:54:25.847Z,22.70
2018-06-05T13:56:54.244Z,23.30
2018-06-05T13:59:22.623Z,23.30
2018-06-05T14:01:50.982Z,22.80
2018-06-05T14:04:19.403Z,22.20
2018-06-05T14:06:47.795Z,22.40
2018-06-05T14:09:16.266Z,22.60
2018-06-05T14:11:44.559Z,23.10
2018-06-05T14:14:12.915Z,23.20
2018-06-05T14:16:41.332Z,23.10
2018-06-05T14:19:09.712Z,23.30
2018-06-05T14:24:06.312Z,22.70
2018-06-05T14:26:34.671Z,22.50
2018-06-05T14:29:03.020Z,22.70
2018-06-05T14:31:31.429Z,22.70
2018-06-05T14:33:59.788Z,22.70
2018-06-05T14:36:28.168Z,22.50
2018-06-05T14:38:56.552Z,22.50
2018-06-05T14:41:26.079Z,22.50
2018-06-05T14:43:54.479Z,22.50
2018-06-05T14:46:22.861Z,22.70
2018-06-05T14:48:51.256Z,22.70
2018-06-05T14:51:19.639Z,22.80
2018-06-05T14:53:47.996Z,23.00
2018-06-05T14:56:16.421Z,22.90
2018-06-05T14:58:44.781Z,22.70
2018-06-05T15:01:13.191Z,22.50
2018-06-05T15:03:41.675Z,22.80
2018-06-05T15:06:10.109Z,22.80
2018-06-05T15:08:38.484Z,22.90
2018-06-05T15:11:06.853Z,22.80
2018-06-05T15:13:35.213Z,22.80
2018-06-05T15:16:03.628Z,22.80
2018-06-05T15:18:31.999Z,22.80
2018-06-05T15:21:00.388Z,22.70
2018-06-05T15:23:28.759Z,22.90
2018-06-05T15:25:57.140Z,22.80
2018-06-05T15:28:25.489Z,22.80
2018-06-05T15:30:53.902Z,22.80
2018-06-05T15:33:22.265Z,22.70
2018-06-05T15:35:50.654Z,23.00
2018-06-05T15:38:19.011Z,23.00
2018-06-05T15:40:47.390Z,22.70
2018-06-05T15:43:15.836Z,22.40
2018-06-05T15:45:44.228Z,22.20
2018-06-05T15:48:12.580Z,22.30
2018-06-05T15:50:41.061Z,22.50
2018-06-05T15:53:09.409Z,22.30
2018-06-05T15:55:37.806Z,22.30
2018-06-05T16:03:02.364Z,22.60
2018-06-05T16:05:30.761Z,22.40
2018-06-05T16:07:59.135Z,22.40
2018-06-05T16:10:27.489Z,22.50
2018-06-05T16:12:55.861Z,22.60
2018-06-05T16:15:24.244Z,22.80
2018-06-05T16:17:52.654Z,22.50
2018-06-05T16:20:21.049Z,22.40
2018-06-05T16:22:49.401Z,22.40
2018-06-05T16:27:45.896Z,22.20
2018-06-05T16:30:14.253Z,22.40
2018-06-05T16:32:42.626Z,22.50
2018-06-05T16:35:11.012Z,22.50
2018-06-05T16:37:39.425Z,22.30
2018-06-05T16:40:07.800Z,22.30
2018-06-05T16:42:36.195Z,22.20
2018-06-05T16:45:04.583Z,22.30
2018-06-05T16:47:33.071Z,22.30
2018-06-05T16:50:01.410Z,22.20
2018-06-05T16:52:29.776Z,22.10
2018-06-05T16:54:58.128Z,22.30
2018-06-05T16:57:26.588Z,22.20
2018-06-05T17:04:53.356Z,22.40
2018-06-05T17:07:21.704Z,22.50
2018-06-05T17:09:50.069Z,22.50
2018-06-05T17:17:14.612Z,22.30
2018-06-05T17:19:42.972Z,22.20
2018-06-05T17:22:11.355Z,22.20
2018-06-05T17:24:39.708Z,22.20
2018-06-05T17:27:08.125Z,22.30
2018-06-05T17:29:36.514Z,22.20
2018-06-05T17:32:04.923Z,22.20
2018-06-05T17:34:33.291Z,22.20
2018-06-05T17:37:01.693Z,22.20
2018-06-05T17:39:30.051Z,22.00
2018-06-05T17:41:58.424Z,22.00
2018-06-05T17:44:26.787Z,22.00
2018-06-05T17:46:55.189Z,22.00
2018-06-05T17:49:23.562Z,21.90
2018-06-05T17:51:51.956Z,21.90
2018-06-05T17:54:20.307Z,21.80
2018-06-05T17:56:48.705Z,21.80
2018-06-05T17:59:17.059Z,21.80
2018-06-05T18:01:45.432Z,21.80
2018-06-05T18:04:13.805Z,21.80
2018-06-05T18:06:42.212Z,21.70
2018-06-05T18:09:10.651Z,21.60
2018-06-05T18:14:07.179Z,21.60
2018-06-05T18:16:35.585Z,21.50
2018-06-05T18:19:03.989Z,21.40
2018-06-05T18:21:32.377Z,21.40
2018-06-05T18:24:00.811Z,21.20
2018-06-05T18:26:29.211Z,21.20
2018-06-05T18:28:57.660Z,21.10
2018-06-05T18:31:26.127Z,21.10
2018-06-05T18:33:54.580Z,21.00
2018-06-05T18:38:51.115Z,20.90
2018-06-05T18:41:19.532Z,20.80
2018-06-05T18:43:47.929Z,20.70
2018-06-05T18:46:16.425Z,20.70
2018-06-05T18:48:44.800Z,20.60
2018-06-05T18:51:13.186Z,20.50
2018-06-05T18:53:41.579Z,20.50
2018-06-05T18:56:09.943Z,20.30
2018-06-05T18:58:38.419Z,20.30
2018-06-05T19:01:06.813Z,20.20
2018-06-05T19:03:35.204Z,20.10
2018-06-05T19:06:03.611Z,20.00
2018-06-05T19:08:32.033Z,19.90
2018-06-05T19:11:00.447Z,19.90
2018-06-05T19:13:28.861Z,19.80
2018-06-05T19:15:57.233Z,19.70
2018-06-05T19:20:53.727Z,19.50
2018-06-05T19:23:22.133Z,19.50
2018-06-05T19:25:50.525Z,19.30
2018-06-05T19:28:18.920Z,19.30
2018-06-05T19:30:47.355Z,19.20
2018-06-05T19:33:15.793Z,19.10
2018-06-05T19:35:44.192Z,19.10
2018-06-05T19:38:12.579Z,19.00
2018-06-05T19:40:41.066Z,18.90
2018-06-05T19:43:09.468Z,18.90
2018-06-05T19:45:38.675Z,18.80
2018-06-05T19:48:07.084Z,18.80
2018-06-05T19:50:35.460Z,18.90
2018-06-05T19:53:03.856Z,18.80
2018-06-05T19:55:32.356Z,18.80
2018-06-05T19:58:00.848Z,18.70
2018-06-05T20:00:29.252Z,18.60
2018-06-05T20:02:57.656Z,18.60
2018-06-05T20:05:26.115Z,18.50
2018-06-05T20:07:54.471Z,18.60
2018-06-05T20:10:22.839Z,18.50
2018-06-05T20:12:51.354Z,18.50
2018-06-05T20:15:19.719Z,18.30
2018-06-05T20:17:48.120Z,18.30
2018-06-05T20:20:16.500Z,18.30
2018-06-05T20:22:44.861Z,18.30
2018-06-05T20:25:13.248Z,18.20
2018-06-05T20:27:41.611Z,18.10
2018-06-05T20:30:09.998Z,18.00
2018-06-05T20:32:38.367Z,18.00
2018-06-05T20:35:06.747Z,17.90
2018-06-05T20:37:35.129Z,17.90
2018-06-05T20:40:03.554Z,17.90
2018-06-05T20:42:31.925Z,18.00
2018-06-05T20:45:00.957Z,18.00
2018-06-05T20:47:29.336Z,17.80
2018-06-05T20:49:57.732Z,17.60
2018-06-05T20:52:26.096Z,17.50
2018-06-05T20:54:54.480Z,17.60
2018-06-05T20:57:22.834Z,17.50
2018-06-05T20:59:51.212Z,17.30
2018-06-05T21:02:19.584Z,17.20
2018-06-05T21:04:47.968Z,17.20
2018-06-05T21:07:16.464Z,17.20
2018-06-05T21:09:44.847Z,17.10
2018-06-05T21:12:13.210Z,17.10
2018-06-05T21:14:41.614Z,17.20
2018-06-05T21:17:09.973Z,17.20
2018-06-05T21:19:38.331Z,17.40
2018-06-05T21:22:06.700Z,17.20
2018-06-05T21:24:35.088Z,17.10
2018-06-05T21:27:03.468Z,17.00
2018-06-05T21:29:31.860Z,16.80
2018-06-05T21:32:00.216Z,16.80
2018-06-05T21:34:28.588Z,16.70
2018-06-05T21:36:56.960Z,16.60
2018-06-05T21:39:25.344Z,16.50
2018-06-05T21:41:53.705Z,16.40
2018-06-05T21:44:22.092Z,16.30
2018-06-05T21:46:50.472Z,16.30
2018-06-05T21:49:18.860Z,16.30
2018-06-05T21:51:47.230Z,16.20
2018-06-05T21:54:15.615Z,16.10
2018-06-05T21:56:44.016Z,16.10
2018-06-05T21:59:12.405Z,16.00
2018-06-05T22:01:40.763Z,15.90
2018-06-05T22:04:09.144Z,15.90
2018-06-05T22:06:37.525Z,15.80
2018-06-05T22:09:08.164Z,15.80
2018-06-05T22:11:36.544Z,15.70
2018-06-05T22:14:04.943Z,15.70
2018-06-05T22:16:33.394Z,15.70
2018-06-05T22:19:01.829Z,15.60
2018-06-05T22:21:30.233Z,15.70
2018-06-05T22:23:58.647Z,15.60
2018-06-05T22:26:27.032Z,15.50
2018-06-05T22:28:55.429Z,15.50
2018-06-05T22:31:23.811Z,15.50
2018-06-05T22:33:52.248Z,15.50
2018-06-05T22:36:20.648Z,15.50
2018-06-05T22:38:49.131Z,15.60
2018-06-05T22:41:17.560Z,15.50
2018-06-05T22:43:45.953Z,15.40
2018-06-05T22:46:14.378Z,15.40
2018-06-05T22:48:42.753Z,15.50
2018-06-05T22:51:11.187Z,15.40
2018-06-05T22:53:39.586Z,15.40
2018-06-05T22:56:08.067Z,15.40
2018-06-05T22:58:36.460Z,15.30
2018-06-05T23:01:04.873Z,15.30
2018-06-05T23:03:33.264Z,15.30
2018-06-05T23:06:01.656Z,15.20
2018-06-05T23:08:30.025Z,15.20
2018-06-05T23:10:58.419Z,15.20
2018-06-05T23:13:26.841Z,15.20
2018-06-05T23:15:55.221Z,15.10
2018-06-05T23:18:23.626Z,15.10
2018-06-05T23:20:52.152Z,15.10
2018-06-05T23:23:20.526Z,15.10
2018-06-05T23:25:48.916Z,15.00
2018-06-05T23:28:17.284Z,15.00
2018-06-05T23:30:46.370Z,15.00
2018-06-05T23:33:14.734Z,15.00
2018-06-05T23:35:43.157Z,14.90
2018-06-05T23:38:11.516Z,14.90
2018-06-05T23:40:39.907Z,14.90
2018-06-05T23:43:08.323Z,14.90
2018-06-05T23:45:36.720Z,14.80
2018-06-05T23:48:05.219Z,14.80
2018-06-05T23:53:03.027Z,14.80
2018-06-05T23:55:31.409Z,14.70
2018-06-05T23:57:59.761Z,14.70
